• Join FlightAware (Why Join?)
  • Login
  • US Flag 
10:27AM EST


 

Airport Tracker/Info


-or-


 

Live Flight TrackerFlight Track Log ✈ N53NW ✈ 01-Aug-2014 ✈ KVNY - KASE

Flight Track Log - Related Links

Times and Time Zones

All times are in EDT time to prevent confusion due to time zone crossing. See the N53NW flight status page for this flight to view local times or setup timezone preferences in your user account.

Time Position Orientation Groundspeed Altitude Reporting Facility
EDT Latitude Longitude Course Direction KTS MPH feet Rate Location/Type
01:56PM 34.1747 -118.4861 124° Southeast 188 216 1,700  Level Los Angeles Center
01:57PM 34.1442 -118.4314 124° Southeast 198 228 3,900 2,100 Climbing Los Angeles Center
01:58PM 34.1894 -118.4169 15° North 212 244 6,100 2,220 Climbing Los Angeles Center
01:59PM 34.2419 -118.4675 321° Northwest 237 273 8,600 2,160 Climbing Los Angeles Center
02:00PM 34.3125 -118.4664 North 252 290 10,700 2,100 Climbing Los Angeles Center
02:01PM 34.3994 -118.4358 16° North 295 339 13,000 1,800 Climbing Los Angeles Center
02:02PM 34.4503 -118.3558 52° Northeast 300 345 14,500 1,500 Climbing Los Angeles Center
02:03PM 34.5042 -118.2703 53° Northeast 313 360 16,200 1,560 Climbing Los Angeles Center
02:04PM 34.5583 -118.1833 53° Northeast 319 367 17,800 1,740 Climbing Los Angeles Center
02:05PM 34.6181 -118.0881 53° Northeast 323 372 19,800 1,680 Climbing Los Angeles Center
02:06PM 34.6400 -117.9867 75° East 320 368 21,400 1,620 Climbing Los Angeles Center
02:07PM 34.6517 -117.8817 82° East 319 367 23,200 1,680 Climbing Los Angeles Center
02:08PM 34.6636 -117.7767 82° East 318 366 24,900 1,560 Climbing Los Angeles Center
02:09PM 34.6869 -117.6739 75° East 318 366 26,500 1,560 Climbing Los Angeles Center
02:10PM 34.7194 -117.5464 73° East 327 376 28,200 1,500 Climbing Los Angeles Center
02:11PM 34.7472 -117.4364 73° East 340 391 29,600 1,320 Climbing Los Angeles Center
02:12PM 34.7756 -117.3247 73° East 346 398 31,000 1,260 Climbing Los Angeles Center
02:13PM 34.8047 -117.2114 73° East 351 404 32,300 1,320 Climbing Los Angeles Center
02:14PM 34.8394 -117.0719 73° East 356 410 33,800 1,200 Climbing Los Angeles Center
02:16PM 34.8931 -116.9642 59° Northeast 375 432 34,900 1,080 Climbing Los Angeles Center
02:17PM 34.9606 -116.8664 50° Northeast 376 433 36,100 1,080 Climbing Los Angeles Center
02:18PM 35.0283 -116.7647 51° Northeast 381 438 37,200 960 Climbing Los Angeles Center
02:19PM 35.0972 -116.6614 51° Northeast 392 451 38,100 840 Climbing Los Angeles Center
02:20PM 35.1664 -116.5572 51° Northeast 392 451 39,000 960 Climbing Los Angeles Center
02:21PM 35.2511 -116.4300 51° Northeast 399 459 40,100 960 Climbing Los Angeles Center
02:22PM 35.3214 -116.3222 51° Northeast 400 460 41,000 420 Climbing Los Angeles Center
02:23PM 35.3936 -116.2133 51° Northeast 404 465 41,000  Level Los Angeles Center
02:24PM 35.4700 -116.0961 51° Northeast 423 487 41,000  Level Los Angeles Center
02:25PM 35.5486 -115.9769 51° Northeast 439 505 41,000  Level Los Angeles Center
02:26PM 35.6433 -115.8339 51° Northeast 444 511 41,000 420 Level Los Angeles Center
02:27PM 35.7208 -115.7139 51° Northeast 444 511 41,900 900 Climbing Los Angeles Center
02:28PM 35.7967 -115.5978 51° Northeast 443 510 42,900 960 Climbing Los Angeles Center
02:29PM 35.8686 -115.4853 52° Northeast 434 499 43,900 960 Climbing Los Angeles Center
02:30PM 35.9381 -115.3778 51° Northeast 420 483 44,900 480 Climbing Los Angeles Center
02:31PM 36.0208 -115.2503 51° Northeast 405 466 45,000  Climbing Los Angeles Center
02:32PM 36.0911 -115.1422 51° Northeast 405 466 45,000  Level Los Angeles Center
02:33PM 36.1708 -115.0428 45° Northeast 409 471 45,000  Level Los Angeles Center
02:34PM 36.2522 -114.9400 46° Northeast 419 482 45,000  Level Los Angeles Center
02:35PM 36.3475 -114.8169 46° Northeast 419 482 45,000  Level Los Angeles Center
02:36PM 36.4275 -114.7142 46° Northeast 417 480 45,000  Level Los Angeles Center
02:37PM 36.5083 -114.6094 46° Northeast 418 481 45,000  Level Los Angeles Center
02:38PM 36.5886 -114.5042 46° Northeast 419 482 45,000  Level Los Angeles Center
02:39PM 36.6672 -114.3997 47° Northeast 418 481 45,000  Level Los Angeles Center
02:40PM 36.7453 -114.2944 47° Northeast 418 481 45,000  Level Los Angeles Center
02:41PM 36.8211 -114.1514 56° Northeast 416 479 45,000  Level Los Angeles Center
02:42PM 36.8778 -114.0289 60° Northeast 412 474 45,000  Level Los Angeles Center
02:43PM 36.9358 -113.9081 59° Northeast 411 473 45,000  Level Los Angeles Center
02:45PM 36.9958 -113.7836 59° Northeast 406 467 45,000  Level Los Angeles Center
02:46PM 37.0533 -113.6628 59° Northeast 406 467 45,000  Level Los Angeles Center
02:47PM 37.1106 -113.5439 59° Northeast 405 466 45,000  Level Los Angeles Center
02:48PM 37.1678 -113.4228 59° Northeast 405 466 45,000  Level Los Angeles Center
02:49PM 37.2358 -113.2797 59° Northeast 404 465 45,000  Level Los Angeles Center
02:50PM 37.2925 -113.1597 59° Northeast 403 464 45,000  Level Los Angeles Center
02:51PM 37.3483 -113.0397 60° Northeast 403 464 45,000  Level Los Angeles Center
02:52PM 37.4033 -112.9192 60° Northeast 403 464 45,000  Level Los Angeles Center
02:53PM 37.4694 -112.7733 60° Northeast 404 465 45,000  Level Los Angeles Center
02:54PM 37.5281 -112.6525 59° Northeast 411 473 45,000  Level Los Angeles Center
02:55PM 37.5861 -112.5311 59° Northeast 411 473 45,000  Level Los Angeles Center
02:56PM 37.6311 -112.4339 60° Northeast 410 472 45,000  Level Salt Lake Center
02:57PM 37.6875 -112.3103 60° Northeast 409 471 45,000  Level Salt Lake Center
02:58PM 37.7531 -112.1936 55° Northeast 409 471 45,000  Level Salt Lake Center
02:59PM 37.8214 -112.0794 53° Northeast 409 471 45,000  Level Salt Lake Center
03:00PM 37.8881 -111.9636 54° Northeast 409 471 45,000  Level Salt Lake Center
03:01PM 37.9689 -111.8228 54° Northeast 410 472 45,000  Level Salt Lake Center
03:02PM 38.0356 -111.7050 54° Northeast 410 472 45,000  Level Salt Lake Center
03:03PM 38.1014 -111.5869 55° Northeast 410 472 45,000  Level Salt Lake Center
03:04PM 38.1675 -111.4681 55° Northeast 411 473 45,000  Level Salt Lake Center
03:05PM 38.2347 -111.3492 54° Northeast 411 473 45,000  Level Salt Lake Center
03:06PM 38.3031 -111.2300 54° Northeast 413 475 45,000  Level Salt Lake Center
03:07PM 38.3836 -111.0864 54° Northeast 413 475 45,000  Level Salt Lake Center
03:08PM 38.4519 -110.9642 54° Northeast 419 482 45,000  Level Salt Lake Center
03:09PM 38.5058 -110.8342 62° Northeast 420 483 45,000  Level Salt Lake Center
03:10PM 38.5464 -110.6944 70° East 423 487 45,000  Level Salt Lake Center
03:11PM 38.5867 -110.5533 70° East 423 487 45,000  Level Salt Lake Center
03:12PM 38.6261 -110.4122 70° East 423 487 45,000  Level Denver Center
03:13PM 38.6661 -110.2692 70° East 425 489 45,000  Level Denver Center
03:14PM 38.7056 -110.1264 70° East 425 489 45,000  Level Denver Center
03:15PM 38.7444 -109.9864 70° East 424 488 45,000 -60 Level Denver Center
03:16PM 38.7836 -109.8503 70° East 413 475 44,900 -360 Descending Denver Center
03:17PM 38.8342 -109.7189 64° Northeast 413 475 44,300 -720 Descending Denver Center
03:18PM 38.8928 -109.5508 66° East 427 491 43,500 -840 Descending Denver Center
03:19PM 38.9436 -109.4114 65° Northeast 432 497 42,600 -900 Descending Denver Center
03:20PM 38.9958 -109.2697 65° Northeast 440 506 41,700 -780 Descending Denver Center
03:21PM 39.0469 -109.1272 65° Northeast 440 506 41,000 -360 Descending Denver Center
03:23PM 39.1075 -108.9603 65° Northeast 438 504 41,000 -300 Level Salt Lake Center
03:23PM 39.1575 -108.8231 65° Northeast 427 491 40,500 -1,080 Descending Denver Center
03:24PM 39.2058 -108.6872 65° Northeast 425 489 39,000 -1,500 Descending Denver Center
03:25PM 39.2544 -108.5506 65° Northeast 424 488 37,500 -1,680 Descending Denver Center
03:26PM 39.3014 -108.4172 65° Northeast 413 475 35,600 -1,260 Descending Denver Center
03:27PM 39.3464 -108.2881 66° East 391 450 35,000 -1,260 Descending Denver Center
03:29PM 39.3983 -108.1389 66° East 384 442 33,000 -1,980 Descending Denver Center
03:30PM 39.4417 -108.0144 66° East 384 442 31,000 -1,920 Descending Denver Center
03:31PM 39.4836 -107.8989 65° Northeast 360 414 29,000 -1,800 Descending Denver Center
03:32PM 39.5197 -107.7894 67° East 337 388 27,300 -1,680 Descending Denver Center
03:33PM 39.5597 -107.6717 66° East 350 403 25,600 -1,860 Descending Denver Center
03:34PM 39.6119 -107.5200 66° East 379 436 23,500 -1,920 Descending Denver Center
03:35PM 39.6531 -107.4003 66° East 371 427 21,700 -1,740 Descending Denver Center
03:36PM 39.6744 -107.2897 76° East 332 382 20,000 -1,680 Descending Denver Center
03:37PM 39.6283 -107.2025 124° Southeast 300 345 18,300 -1,500 Descending Denver Center
03:38PM 39.5800 -107.1236 128° Southeast 283 326 17,000 -1,200 Descending Denver Center
03:39PM 39.5369 -107.0542 129° Southeast 251 289 15,900 -780 Descending Denver Center
03:40PM 39.4936 -106.9981 135° Southeast 189 217 15,400 -1,260 Descending Denver Center
03:41PM 39.4389 -106.9731 161° South 203 234 13,400 -1,380 Descending Denver Center
03:42PM 39.3939 -106.9517 160° South 188 216 12,600 -720 Descending Denver Center
03:43PM 39.3553 -106.9336 160° South 165 190 12,000 -1,020 Descending Denver Center
03:44PM 39.3178 -106.9144 158° South 154 177 10,500 -1,560 Descending Denver Center
03:45PM 39.2803 -106.8956 159° South 149 171 8,800 -1,140 Descending Denver Center
03:46PM 39.2358 -106.8767 162° South 146 168 8,200 -600 Descending Denver Center